Terminal Aerodrome Forecast
Issued by NWS

Home | Current Version | Previous Version | Text Only | Print | Product List | Glossary On
Versions: 1 2 3 4 5 6 7 8 9 10 11 12 13 14 15 16
000
FTUS46 KSGX 070545 CCA
TAFONT
TAF COR
KONT 070545Z 0706/0812 25011KT P6SM BKN020 OVC040
     FM071800 25012G20KT P6SM VCSH SCT025 BKN050
     FM080600 25012G20KT P6SM VCSH BKN025 OVC045
     FM080900 25012G20KT P6SM -SHRA BKN020 OVC045=

USA.gov is the U.S. government's official web portal to all federal, state and local government web resources and services.